createdAt,value
2023-01-20T00:01:47.229Z,-0.88
2023-01-20T00:04:18.440Z,-0.87
2023-01-20T00:06:47.034Z,-0.83
2023-01-20T00:09:17.326Z,-0.79
2023-01-20T00:11:45.719Z,-0.76
2023-01-20T00:14:13.569Z,-0.76
2023-01-20T00:16:41.835Z,-0.79
2023-01-20T00:19:13.746Z,-0.77
2023-01-20T00:21:42.384Z,-0.72
2023-01-20T00:24:10.383Z,-0.67
2023-01-20T00:26:38.296Z,-0.63
2023-01-20T00:29:06.077Z,-0.60
2023-01-20T00:31:35.565Z,-0.57
2023-01-20T00:34:03.641Z,-0.58
2023-01-20T00:36:32.296Z,-0.57
2023-01-20T00:39:02.318Z,-0.57
2023-01-20T00:41:30.540Z,-0.55
2023-01-20T00:43:58.502Z,-0.55
2023-01-20T00:46:27.020Z,-0.55
2023-01-20T00:48:55.208Z,-0.55
2023-01-20T00:51:23.199Z,-0.54
2023-01-20T00:53:51.260Z,-0.55
2023-01-20T00:56:19.191Z,-0.55
2023-01-20T00:58:47.763Z,-0.55
2023-01-20T01:01:15.711Z,-0.55
2023-01-20T01:03:43.921Z,-0.56
2023-01-20T01:06:16.240Z,-0.57
2023-01-20T01:08:44.016Z,-0.57
2023-01-20T01:11:13.178Z,-0.65
2023-01-20T01:13:41.425Z,-0.66
2023-01-20T01:16:12.425Z,-0.65
2023-01-20T01:18:41.454Z,-0.64
2023-01-20T01:21:12.565Z,-0.63
2023-01-20T01:23:40.629Z,-0.64
2023-01-20T01:26:09.941Z,-0.64
2023-01-20T01:28:38.321Z,-0.65
2023-01-20T01:31:07.654Z,-0.65
2023-01-20T01:33:36.139Z,-0.65
2023-01-20T01:36:04.911Z,-0.66
2023-01-20T01:38:32.734Z,-0.66
2023-01-20T01:41:01.051Z,-0.66
2023-01-20T01:43:32.298Z,-0.67
2023-01-20T01:46:00.759Z,-0.67
2023-01-20T01:48:43.216Z,-0.69
2023-01-20T01:51:27.969Z,-0.70
2023-01-20T01:53:59.680Z,-0.71
2023-01-20T01:56:29.488Z,-0.80
2023-01-20T01:59:02.087Z,-0.84
2023-01-20T02:01:34.709Z,-0.85
2023-01-20T02:04:13.222Z,-0.86
2023-01-20T02:06:59.124Z,-0.87
2023-01-20T02:09:28.662Z,-0.88
2023-01-20T02:12:01.879Z,-0.88
2023-01-20T02:14:45.471Z,-0.88
2023-01-20T02:17:30.757Z,-0.91
2023-01-20T02:20:35.748Z,-0.93
2023-01-20T02:23:56.005Z,-0.97
2023-01-20T02:26:44.603Z,-1.03
2023-01-20T02:29:30.699Z,-1.04
2023-01-20T02:32:44.077Z,-1.03
2023-01-20T02:35:45.679Z,-1.04
2023-01-20T02:38:45.498Z,-1.03
2023-01-20T02:41:34.775Z,-1.06
2023-01-20T02:44:35.954Z,-1.10
2023-01-20T02:47:36.675Z,-1.14
2023-01-20T02:50:19.841Z,-1.20
2023-01-20T02:52:57.303Z,-1.23
2023-01-20T02:55:40.422Z,-1.26
2023-01-20T02:58:37.555Z,-1.29
2023-01-20T03:01:32.418Z,-1.32
2023-01-20T03:04:03.277Z,-1.35
2023-01-20T03:06:45.895Z,-1.37
2023-01-20T03:09:20.823Z,-1.41
2023-01-20T03:11:57.413Z,-1.43
2023-01-20T03:14:25.665Z,-1.46
2023-01-20T03:16:53.802Z,-1.49
2023-01-20T03:19:21.709Z,-1.51
2023-01-20T03:21:49.722Z,-1.53
2023-01-20T03:24:17.600Z,-1.55
2023-01-20T03:26:45.691Z,-1.58
2023-01-20T03:29:15.425Z,-1.61
2023-01-20T03:31:58.438Z,-1.64
2023-01-20T03:34:31.081Z,-1.67
2023-01-20T03:37:00.351Z,-1.69
2023-01-20T03:39:28.759Z,-1.71
2023-01-20T03:42:07.265Z,-1.73
2023-01-20T03:45:04.915Z,-1.77
2023-01-20T03:48:17.205Z,-1.81
2023-01-20T03:50:53.787Z,-1.85
2023-01-20T03:53:58.107Z,-1.87
2023-01-20T03:56:46.086Z,-1.89
2023-01-20T03:59:16.644Z,-1.90
2023-01-20T04:01:44.908Z,-1.89
2023-01-20T04:04:18.611Z,-1.88
2023-01-20T04:06:50.061Z,-1.88
2023-01-20T04:09:26.286Z,-1.87
2023-01-20T04:11:55.067Z,-1.86
2023-01-20T04:14:23.018Z,-1.84
2023-01-20T04:16:55.238Z,-1.83
2023-01-20T04:19:24.457Z,-1.83
2023-01-20T04:22:29.817Z,-1.81
2023-01-20T04:25:14.244Z,-1.79
2023-01-20T04:27:42.188Z,-1.77
2023-01-20T04:30:12.264Z,-1.73
2023-01-20T04:32:40.162Z,-1.72
2023-01-20T04:35:19.722Z,-1.71
2023-01-20T04:37:47.747Z,-1.73
2023-01-20T04:40:15.912Z,-1.72
2023-01-20T04:42:43.782Z,-1.71
2023-01-20T04:45:16.347Z,-1.68
2023-01-20T04:47:44.414Z,-1.66
2023-01-20T04:50:14.545Z,-1.64
2023-01-20T04:52:43.270Z,-1.62
2023-01-20T04:55:11.939Z,-1.62
2023-01-20T04:57:40.043Z,-1.68
2023-01-20T05:00:08.793Z,-1.71
2023-01-20T05:02:36.653Z,-1.70
2023-01-20T05:05:04.797Z,-1.69
2023-01-20T05:07:32.577Z,-1.67
2023-01-20T05:10:00.331Z,-1.66
2023-01-20T05:12:28.351Z,-1.66
2023-01-20T05:14:56.121Z,-1.66
2023-01-20T05:17:23.907Z,-1.63
2023-01-20T05:19:51.760Z,-1.61
2023-01-20T05:22:19.724Z,-1.60
2023-01-20T05:24:47.649Z,-1.60
2023-01-20T05:27:15.556Z,-1.60
2023-01-20T05:29:43.230Z,-1.61
2023-01-20T05:32:11.156Z,-1.62
2023-01-20T05:34:38.790Z,-1.62
2023-01-20T05:37:18.556Z,-1.60
2023-01-20T05:39:46.468Z,-1.62
2023-01-20T05:42:15.191Z,-1.67
2023-01-20T05:44:43.388Z,-1.69
2023-01-20T05:47:11.624Z,-1.71
2023-01-20T05:49:39.584Z,-1.73
2023-01-20T05:52:07.412Z,-1.75
2023-01-20T05:54:35.711Z,-1.74
2023-01-20T05:57:05.048Z,-1.74
2023-01-20T05:59:34.297Z,-1.77
2023-01-20T06:02:02.168Z,-1.79
2023-01-20T06:04:30.036Z,-1.80
2023-01-20T06:06:58.018Z,-1.84
2023-01-20T06:09:26.009Z,-1.90
2023-01-20T06:11:53.916Z,-1.95
2023-01-20T06:14:21.718Z,-2.02
2023-01-20T06:16:49.690Z,-2.08
2023-01-20T06:19:17.741Z,-2.12
2023-01-20T06:21:47.553Z,-2.15
2023-01-20T06:24:15.514Z,-2.16
2023-01-20T06:26:44.442Z,-2.17
2023-01-20T06:29:12.314Z,-2.19
2023-01-20T06:31:40.390Z,-2.19
2023-01-20T06:34:08.244Z,-2.17
2023-01-20T06:36:36.257Z,-2.16
2023-01-20T06:39:04.476Z,-2.16
2023-01-20T06:41:32.625Z,-2.18
2023-01-20T06:44:00.621Z,-2.20
2023-01-20T06:46:28.464Z,-2.20
2023-01-20T06:48:59.839Z,-2.21
2023-01-20T06:51:29.968Z,-2.21
2023-01-20T06:54:00.744Z,-2.23
2023-01-20T06:56:28.530Z,-2.23
2023-01-20T06:58:56.357Z,-2.22
2023-01-20T07:01:31.549Z,-2.22
2023-01-20T07:04:00.216Z,-2.22
2023-01-20T07:06:35.254Z,-2.20
2023-01-20T07:09:04.993Z,-2.18
2023-01-20T07:11:36.791Z,-2.16
2023-01-20T07:14:06.813Z,-2.15
2023-01-20T07:16:35.886Z,-2.14
2023-01-20T07:19:04.806Z,-2.13
2023-01-20T07:21:33.082Z,-2.12
2023-01-20T07:24:02.090Z,-2.09
2023-01-20T07:26:30.864Z,-2.08
2023-01-20T07:28:58.937Z,-2.05
2023-01-20T07:31:28.960Z,-2.01
2023-01-20T07:33:57.694Z,-1.97
2023-01-20T07:36:26.123Z,-1.92
2023-01-20T07:38:54.139Z,-1.86
2023-01-20T07:41:22.128Z,-1.81
2023-01-20T07:43:52.088Z,-1.74
2023-01-20T07:46:20.491Z,-1.67
2023-01-20T07:48:49.015Z,-1.58
2023-01-20T07:51:17.993Z,-1.49
2023-01-20T07:53:48.672Z,-1.44
2023-01-20T07:56:26.973Z,-1.38
2023-01-20T07:58:55.590Z,-1.29
2023-01-20T08:01:29.745Z,-1.16
2023-01-20T08:04:02.021Z,-1.06
2023-01-20T08:06:30.270Z,-0.96
2023-01-20T08:09:01.861Z,-0.87
2023-01-20T08:11:31.641Z,-0.77
2023-01-20T08:13:59.559Z,-0.68
2023-01-20T08:16:27.409Z,-0.59
2023-01-20T08:18:55.354Z,-0.48
2023-01-20T08:21:30.098Z,-0.37
2023-01-20T08:24:01.013Z,-0.29
2023-01-20T08:26:30.139Z,-0.21
2023-01-20T08:29:06.352Z,-0.12
2023-01-20T08:31:35.606Z,-0.05
2023-01-20T08:34:04.821Z,0.02
2023-01-20T08:36:36.369Z,0.10
2023-01-20T08:39:08.102Z,0.18
2023-01-20T08:41:39.121Z,0.25
2023-01-20T08:44:10.148Z,0.28
2023-01-20T08:46:41.801Z,0.31
2023-01-20T08:49:14.408Z,0.33
2023-01-20T08:51:44.249Z,0.37
2023-01-20T08:54:12.211Z,0.42
2023-01-20T08:56:40.527Z,0.42
2023-01-20T08:59:08.329Z,0.44
2023-01-20T09:01:37.278Z,0.49
2023-01-20T09:04:07.433Z,0.56
2023-01-20T09:06:46.040Z,0.62
2023-01-20T09:09:17.514Z,0.71
2023-01-20T09:11:51.569Z,0.80
2023-01-20T09:14:22.799Z,0.88
2023-01-20T09:16:51.366Z,0.98
2023-01-20T09:19:19.323Z,1.06
2023-01-20T09:21:47.527Z,1.10
2023-01-20T09:24:15.564Z,1.11
2023-01-20T09:26:44.393Z,1.15
2023-01-20T09:29:15.441Z,1.17
2023-01-20T09:31:49.916Z,1.23
2023-01-20T09:34:23.744Z,1.27
2023-01-20T09:36:58.323Z,1.31
2023-01-20T09:39:44.829Z,1.36
2023-01-20T09:42:57.035Z,1.41
2023-01-20T09:45:51.174Z,1.44
2023-01-20T09:49:04.128Z,1.50
2023-01-20T09:51:59.951Z,1.55
2023-01-20T09:54:38.116Z,1.52
2023-01-20T09:57:08.323Z,1.55
2023-01-20T09:59:44.167Z,1.60
2023-01-20T10:02:24.854Z,1.65
2023-01-20T10:05:00.058Z,1.71
2023-01-20T10:08:10.823Z,1.77
2023-01-20T10:11:07.907Z,1.77
2023-01-20T10:13:55.854Z,1.80
2023-01-20T10:16:37.470Z,1.88
2023-01-20T10:19:30.037Z,1.96
2023-01-20T10:22:17.357Z,2.04
2023-01-20T10:25:08.212Z,2.07
2023-01-20T10:27:41.899Z,2.18
2023-01-20T10:30:13.731Z,2.30
2023-01-20T10:33:10.264Z,2.40
2023-01-20T10:35:46.559Z,2.47
2023-01-20T10:39:05.169Z,2.51
2023-01-20T10:41:46.944Z,2.53
2023-01-20T10:44:16.010Z,2.57
2023-01-20T10:47:19.494Z,2.64
2023-01-20T10:49:56.790Z,2.71
2023-01-20T10:52:58.100Z,2.75
2023-01-20T10:55:47.780Z,2.79
2023-01-20T10:58:42.979Z,2.87
2023-01-20T11:01:16.918Z,3.00
2023-01-20T11:03:49.024Z,3.18
2023-01-20T11:06:22.829Z,3.38
2023-01-20T11:08:50.806Z,3.54
2023-01-20T11:11:23.324Z,3.61
2023-01-20T11:13:52.413Z,3.72
2023-01-20T11:16:24.880Z,3.85
2023-01-20T11:19:03.037Z,3.93
2023-01-20T11:21:36.252Z,3.87
2023-01-20T11:24:33.223Z,3.81
2023-01-20T11:27:15.752Z,3.63
2023-01-20T11:29:52.580Z,3.44
2023-01-20T11:32:39.672Z,3.31
2023-01-20T11:35:25.829Z,3.21
2023-01-20T11:37:53.683Z,3.11
2023-01-20T11:40:25.981Z,3.04
2023-01-20T11:42:54.859Z,2.99
2023-01-20T11:45:30.541Z,2.85
2023-01-20T11:48:15.942Z,2.76
2023-01-20T11:50:49.812Z,2.65
2023-01-20T11:53:33.289Z,2.57
2023-01-20T11:56:17.774Z,2.51
2023-01-20T11:59:31.875Z,2.48
2023-01-20T12:02:01.317Z,2.45
2023-01-20T12:04:48.519Z,2.46
2023-01-20T12:07:31.834Z,2.50
2023-01-20T12:10:33.877Z,2.58
2023-01-20T12:13:22.313Z,2.57
2023-01-20T12:16:00.742Z,2.55
2023-01-20T12:19:01.111Z,2.58
2023-01-20T12:21:43.348Z,2.57
2023-01-20T12:24:38.690Z,2.55
2023-01-20T12:27:25.189Z,2.55
2023-01-20T12:29:59.753Z,2.55
2023-01-20T12:32:28.744Z,2.51
2023-01-20T12:34:57.438Z,2.49
2023-01-20T12:37:52.693Z,2.47
2023-01-20T12:40:38.425Z,2.40
2023-01-20T12:43:28.606Z,2.36
2023-01-20T12:46:21.904Z,2.31
2023-01-20T12:49:01.706Z,2.21
2023-01-20T12:51:38.443Z,2.11
2023-01-20T12:54:42.979Z,2.08
2023-01-20T12:57:46.942Z,2.02
2023-01-20T13:00:36.431Z,1.96
2023-01-20T13:03:58.217Z,1.91
2023-01-20T13:06:51.091Z,1.87
2023-01-20T13:09:27.882Z,1.82
2023-01-20T13:12:45.259Z,1.78
2023-01-20T13:15:55.151Z,1.74
2023-01-20T13:19:12.711Z,1.72
2023-01-20T13:21:42.031Z,1.68
2023-01-20T13:24:19.781Z,1.66
2023-01-20T13:26:48.886Z,1.63
2023-01-20T13:29:56.168Z,1.61
2023-01-20T13:32:47.567Z,1.57
2023-01-20T13:35:15.671Z,1.56
2023-01-20T13:38:04.064Z,1.54
2023-01-20T13:40:37.957Z,1.50
2023-01-20T13:43:26.881Z,1.48
2023-01-20T13:46:02.667Z,1.42
2023-01-20T13:48:34.740Z,1.37
2023-01-20T13:51:21.243Z,1.36
2023-01-20T13:53:49.047Z,1.33
2023-01-20T13:56:34.629Z,1.33
2023-01-20T13:59:02.444Z,1.30
2023-01-20T14:01:30.164Z,1.28
2023-01-20T14:04:21.477Z,1.27
2023-01-20T14:06:51.923Z,1.25
2023-01-20T14:09:25.701Z,1.22
2023-01-20T14:11:56.616Z,1.21
2023-01-20T14:14:26.221Z,1.21
2023-01-20T14:16:55.838Z,1.20
2023-01-20T14:19:34.130Z,1.18
2023-01-20T14:22:16.984Z,1.14
2023-01-20T14:24:49.515Z,1.13
2023-01-20T14:27:28.999Z,1.16
2023-01-20T14:30:12.546Z,1.15
2023-01-20T14:32:41.043Z,1.14
2023-01-20T14:35:31.821Z,1.12
2023-01-20T14:38:00.485Z,1.07
2023-01-20T14:40:32.128Z,1.03
2023-01-20T14:43:20.064Z,0.99
2023-01-20T14:45:52.480Z,0.96
2023-01-20T14:48:33.448Z,0.93
2023-01-20T14:51:03.676Z,0.88
2023-01-20T14:53:31.480Z,0.84
2023-01-20T14:56:09.125Z,0.82
2023-01-20T14:58:48.868Z,0.79
2023-01-20T15:01:25.653Z,0.76
2023-01-20T15:04:02.035Z,0.76
2023-01-20T15:06:30.045Z,0.74
2023-01-20T15:09:06.651Z,0.72
2023-01-20T15:11:35.867Z,0.68
2023-01-20T15:14:09.817Z,0.67
2023-01-20T15:16:44.210Z,0.66
2023-01-20T15:19:22.137Z,0.64
2023-01-20T15:21:58.273Z,0.65
2023-01-20T15:24:33.877Z,0.64
2023-01-20T15:27:16.488Z,0.61
2023-01-20T15:30:02.323Z,0.60
2023-01-20T15:32:30.185Z,0.61
2023-01-20T15:34:58.160Z,0.62
2023-01-20T15:37:26.056Z,0.63
2023-01-20T15:39:53.988Z,0.62
2023-01-20T15:42:23.591Z,0.61
2023-01-20T15:44:52.084Z,0.60
2023-01-20T15:47:30.448Z,0.60
2023-01-20T15:49:58.436Z,0.60
2023-01-20T15:52:26.277Z,0.62
2023-01-20T15:54:54.428Z,0.63
2023-01-20T15:57:23.010Z,0.62
2023-01-20T15:59:51.028Z,0.60
2023-01-20T16:02:22.832Z,0.60
2023-01-20T16:04:51.004Z,0.62
2023-01-20T16:07:20.686Z,0.56
2023-01-20T16:09:48.760Z,0.54
2023-01-20T16:12:19.201Z,0.52
2023-01-20T16:14:47.116Z,0.49
2023-01-20T16:17:20.708Z,0.45
2023-01-20T16:19:49.932Z,0.41
2023-01-20T16:22:17.895Z,0.37
2023-01-20T16:24:48.465Z,0.35
2023-01-20T16:27:22.597Z,0.31
2023-01-20T16:29:50.805Z,0.28
2023-01-20T16:32:22.264Z,0.22
2023-01-20T16:34:50.439Z,0.15
2023-01-20T16:37:18.471Z,0.09
2023-01-20T16:39:46.534Z,0.05
2023-01-20T16:42:16.170Z,0.02
2023-01-20T16:44:44.114Z,0.00
2023-01-20T16:47:12.013Z,-0.00
2023-01-20T16:49:42.455Z,-0.03
2023-01-20T16:52:11.386Z,-0.05
2023-01-20T16:54:51.320Z,-0.06
2023-01-20T16:57:20.181Z,-0.07
2023-01-20T16:59:54.328Z,-0.07
2023-01-20T17:02:22.260Z,-0.07
2023-01-20T17:04:50.652Z,-0.08
2023-01-20T17:07:19.320Z,-0.09
2023-01-20T17:09:47.463Z,-0.09
2023-01-20T17:12:16.192Z,-0.10
2023-01-20T17:14:43.981Z,-0.12
2023-01-20T17:17:12.819Z,-0.15
2023-01-20T17:19:40.615Z,-0.16
2023-01-20T17:22:08.665Z,-0.17
2023-01-20T17:24:38.615Z,-0.23
2023-01-20T17:27:06.393Z,-0.30
2023-01-20T17:29:34.977Z,-0.33
2023-01-20T17:32:02.937Z,-0.33
2023-01-20T17:34:30.745Z,-0.35
2023-01-20T17:36:59.392Z,-0.36
2023-01-20T17:39:27.279Z,-0.38
2023-01-20T17:41:58.209Z,-0.40
2023-01-20T17:44:26.021Z,-0.42
2023-01-20T17:46:53.842Z,-0.44
2023-01-20T17:49:24.852Z,-0.43
2023-01-20T17:51:52.754Z,-0.43
2023-01-20T17:54:23.909Z,-0.41
2023-01-20T17:56:51.862Z,-0.37
2023-01-20T17:59:19.631Z,-0.33
2023-01-20T18:01:51.656Z,-0.33
2023-01-20T18:04:19.721Z,-0.33
2023-01-20T18:06:48.496Z,-0.33
2023-01-20T18:09:16.425Z,-0.33
2023-01-20T18:11:44.809Z,-0.35
2023-01-20T18:14:13.104Z,-0.37
2023-01-20T18:16:41.380Z,-0.40
2023-01-20T18:19:14.126Z,-0.41
2023-01-20T18:21:43.788Z,-0.41
2023-01-20T18:24:12.801Z,-0.42
2023-01-20T18:26:43.555Z,-0.46
2023-01-20T18:29:16.716Z,-0.49
2023-01-20T18:31:45.807Z,-0.50
2023-01-20T18:34:15.051Z,-0.48
2023-01-20T18:36:45.615Z,-0.44
2023-01-20T18:39:19.731Z,-0.41
2023-01-20T18:41:49.308Z,-0.39
2023-01-20T18:44:18.314Z,-0.36
2023-01-20T18:46:46.555Z,-0.35
2023-01-20T18:49:18.714Z,-0.35
2023-01-20T18:51:49.058Z,-0.37
2023-01-20T18:54:22.529Z,-0.40
2023-01-20T18:56:50.214Z,-0.44
2023-01-20T18:59:18.226Z,-0.44
2023-01-20T19:01:46.644Z,-0.41
2023-01-20T19:04:15.060Z,-0.42
2023-01-20T19:06:44.789Z,-0.44
2023-01-20T19:09:15.580Z,-0.47
2023-01-20T19:11:43.638Z,-0.49
2023-01-20T19:14:14.454Z,-0.51
2023-01-20T19:16:44.605Z,-0.52
2023-01-20T19:19:13.452Z,-0.50
2023-01-20T19:21:41.684Z,-0.51
2023-01-20T19:24:18.128Z,-0.52
2023-01-20T19:26:46.945Z,-0.58
2023-01-20T19:29:18.664Z,-0.60
2023-01-20T19:31:48.411Z,-0.58
2023-01-20T19:34:16.295Z,-0.59
2023-01-20T19:36:44.405Z,-0.61
2023-01-20T19:39:15.831Z,-0.62
2023-01-20T19:41:44.023Z,-0.61
2023-01-20T19:44:12.927Z,-0.59
2023-01-20T19:46:41.016Z,-0.59
2023-01-20T19:49:11.263Z,-0.58
2023-01-20T19:51:39.152Z,-0.58
2023-01-20T19:54:07.152Z,-0.57
2023-01-20T19:56:35.698Z,-0.57
2023-01-20T19:59:05.403Z,-0.54
2023-01-20T20:01:36.200Z,-0.53
2023-01-20T20:04:10.832Z,-0.52
2023-01-20T20:06:48.589Z,-0.52
2023-01-20T20:09:22.603Z,-0.49
2023-01-20T20:11:50.542Z,-0.44
2023-01-20T20:14:21.879Z,-0.38
2023-01-20T20:16:50.373Z,-0.36
2023-01-20T20:19:19.467Z,-0.34
2023-01-20T20:21:47.581Z,-0.34
2023-01-20T20:24:17.608Z,-0.33
2023-01-20T20:26:47.153Z,-0.31
2023-01-20T20:29:18.129Z,-0.29
2023-01-20T20:31:46.456Z,-0.27
2023-01-20T20:34:18.325Z,-0.23
2023-01-20T20:36:46.525Z,-0.21
2023-01-20T20:39:17.206Z,-0.21
2023-01-20T20:41:47.000Z,-0.19
2023-01-20T20:44:15.337Z,-0.16
2023-01-20T20:46:43.384Z,-0.15
2023-01-20T20:49:17.085Z,-0.12
2023-01-20T20:51:45.378Z,-0.10
2023-01-20T20:54:16.134Z,-0.08
2023-01-20T20:56:44.951Z,-0.06
2023-01-20T20:59:13.076Z,-0.06
2023-01-20T21:01:41.289Z,-0.04
2023-01-20T21:04:12.218Z,-0.06
2023-01-20T21:06:40.055Z,-0.06
2023-01-20T21:09:08.700Z,-0.07
2023-01-20T21:11:38.438Z,-0.06
2023-01-20T21:14:07.592Z,-0.06
2023-01-20T21:16:35.784Z,-0.06
2023-01-20T21:19:04.782Z,-0.04
2023-01-20T21:21:33.002Z,-0.04
2023-01-20T21:24:01.233Z,-0.06
2023-01-20T21:26:30.703Z,-0.06
2023-01-20T21:29:03.233Z,-0.05
2023-01-20T21:31:32.021Z,-0.05
2023-01-20T21:34:00.972Z,-0.05
2023-01-20T21:36:31.159Z,-0.06
2023-01-20T21:38:59.616Z,-0.06
2023-01-20T21:41:31.720Z,-0.03
2023-01-20T21:44:18.550Z,-0.03
2023-01-20T21:46:46.818Z,-0.06
2023-01-20T21:49:33.444Z,-0.05
2023-01-20T21:52:20.143Z,-0.05
2023-01-20T21:54:48.240Z,-0.04
2023-01-20T21:57:16.246Z,-0.01
2023-01-20T21:59:45.221Z,0.03
2023-01-20T22:02:14.175Z,0.04
2023-01-20T22:04:43.231Z,0.00
2023-01-20T22:07:11.523Z,-0.02
2023-01-20T22:09:39.957Z,-0.02
2023-01-20T22:12:08.953Z,-0.03
2023-01-20T22:14:40.123Z,-0.06
2023-01-20T22:17:10.484Z,-0.07
2023-01-20T22:19:39.477Z,-0.08
2023-01-20T22:22:07.555Z,-0.12
2023-01-20T22:24:36.094Z,-0.14
2023-01-20T22:27:04.017Z,-0.13
2023-01-20T22:29:31.944Z,-0.12
2023-01-20T22:32:02.647Z,-0.12
2023-01-20T22:34:30.729Z,-0.10
2023-01-20T22:36:59.921Z,-0.09
2023-01-20T22:39:28.146Z,-0.11
2023-01-20T22:41:56.087Z,-0.13
2023-01-20T22:44:24.017Z,-0.14
2023-01-20T22:46:51.935Z,-0.14
2023-01-20T22:49:22.772Z,-0.14
2023-01-20T22:51:54.728Z,-0.14
2023-01-20T22:54:22.777Z,-0.13
2023-01-20T22:56:50.820Z,-0.12
2023-01-20T22:59:18.787Z,-0.12
2023-01-20T23:01:46.716Z,-0.11
2023-01-20T23:04:15.029Z,-0.10
2023-01-20T23:06:43.177Z,-0.09
2023-01-20T23:09:13.936Z,-0.07
2023-01-20T23:11:41.811Z,-0.08
2023-01-20T23:14:12.215Z,-0.08
2023-01-20T23:16:41.824Z,-0.08
2023-01-20T23:19:10.378Z,-0.06
2023-01-20T23:21:38.278Z,-0.03
2023-01-20T23:24:07.797Z,-0.02
2023-01-20T23:26:35.724Z,-0.00
2023-01-20T23:29:04.811Z,0.01
2023-01-20T23:31:34.634Z,-0.01
2023-01-20T23:34:02.493Z,-0.02
2023-01-20T23:36:30.350Z,-0.03
2023-01-20T23:38:58.309Z,-0.05
2023-01-20T23:41:26.084Z,-0.04
2023-01-20T23:43:54.647Z,-0.04
2023-01-20T23:46:22.723Z,-0.04
2023-01-20T23:48:50.783Z,-0.03
2023-01-20T23:51:18.732Z,-0.03
2023-01-20T23:53:46.644Z,-0.01
2023-01-20T23:56:20.942Z,-0.00
2023-01-20T23:58:49.788Z,-0.02
